<?xml version="1.0" encoding="UTF-8"?>
<gpx creator="Wikiloc - https://www.wikiloc.com" version="1.1" xmlns="http://www.topografix.com/GPX/1/1" xmlns:xsi="http://www.w3.org/2001/XMLSchema-instance" xsi:schemaLocation="http://www.topografix.com/GPX/1/1 http://www.topografix.com/GPX/1/1/gpx.xsd">
  <trk>
    <name>PR-BA 178 'Senda del Puente del Hierro' (Castuera)</name>
    <cmt>Más información en http://fexme.com/buscar-senderos/</cmt>
    <desc>Más información en http://fexme.com/buscar-senderos/</desc>
    <trkseg>
      <trkpt lat="38.722105" lon="-5.553213">
        <ele>480.3</ele>
        <time>2010-06-11T08:34:54Z</time>
      </trkpt>
      <trkpt lat="38.721643" lon="-5.553252">
        <ele>481.8</ele>
        <time>2010-06-11T08:36:24Z</time>
      </trkpt>
      <trkpt lat="38.722875" lon="-5.556717">
        <ele>478.9</ele>
        <time>2010-06-11T08:37:54Z</time>
      </trkpt>
      <trkpt lat="38.723683" lon="-5.560760">
        <ele>481.8</ele>
        <time>2010-06-11T08:39:24Z</time>
      </trkpt>
      <trkpt lat="38.723710" lon="-5.562770">
        <ele>480.3</ele>
        <time>2010-06-11T08:40:54Z</time>
      </trkpt>
      <trkpt lat="38.723600" lon="-5.565870">
        <ele>461.1</ele>
        <time>2010-06-11T08:42:24Z</time>
      </trkpt>
      <trkpt lat="38.723790" lon="-5.567200">
        <ele>452.9</ele>
        <time>2010-06-11T08:43:54Z</time>
      </trkpt>
      <trkpt lat="38.723840" lon="-5.570030">
        <ele>442.8</ele>
        <time>2010-06-11T08:45:24Z</time>
      </trkpt>
      <trkpt lat="38.723760" lon="-5.571040">
        <ele>440.4</ele>
        <time>2010-06-11T08:46:54Z</time>
      </trkpt>
      <trkpt lat="38.723530" lon="-5.571960">
        <ele>424.1</ele>
        <time>2010-06-11T08:48:24Z</time>
      </trkpt>
      <trkpt lat="38.723420" lon="-5.573150">
        <ele>423.6</ele>
        <time>2010-06-11T08:49:54Z</time>
      </trkpt>
      <trkpt lat="38.723430" lon="-5.574100">
        <ele>423.1</ele>
        <time>2010-06-11T08:51:24Z</time>
      </trkpt>
      <trkpt lat="38.723610" lon="-5.574460">
        <ele>423.6</ele>
        <time>2010-06-11T08:52:54Z</time>
      </trkpt>
      <trkpt lat="38.724460" lon="-5.575620">
        <ele>421.7</ele>
        <time>2010-06-11T08:54:24Z</time>
      </trkpt>
      <trkpt lat="38.725250" lon="-5.577400">
        <ele>417.8</ele>
        <time>2010-06-11T08:55:54Z</time>
      </trkpt>
      <trkpt lat="38.725610" lon="-5.578410">
        <ele>413.5</ele>
        <time>2010-06-11T08:57:24Z</time>
      </trkpt>
      <trkpt lat="38.725620" lon="-5.578660">
        <ele>403.9</ele>
        <time>2010-06-11T08:58:54Z</time>
      </trkpt>
      <trkpt lat="38.726120" lon="-5.579390">
        <ele>401.5</ele>
        <time>2010-06-11T09:00:24Z</time>
      </trkpt>
      <trkpt lat="38.726860" lon="-5.581310">
        <ele>402.5</ele>
        <time>2010-06-11T09:01:54Z</time>
      </trkpt>
      <trkpt lat="38.728180" lon="-5.582820">
        <ele>403.4</ele>
        <time>2010-06-11T09:03:24Z</time>
      </trkpt>
      <trkpt lat="38.728890" lon="-5.583940">
        <ele>399.1</ele>
        <time>2010-06-11T09:04:54Z</time>
      </trkpt>
      <trkpt lat="38.729180" lon="-5.584640">
        <ele>400.5</ele>
        <time>2010-06-11T09:06:24Z</time>
      </trkpt>
      <trkpt lat="38.729190" lon="-5.584750">
        <ele>400.1</ele>
        <time>2010-06-11T09:07:54Z</time>
      </trkpt>
      <trkpt lat="38.729610" lon="-5.585980">
        <ele>403.4</ele>
        <time>2010-06-11T09:09:24Z</time>
      </trkpt>
      <trkpt lat="38.729700" lon="-5.586460">
        <ele>398.6</ele>
        <time>2010-06-11T09:10:54Z</time>
      </trkpt>
      <trkpt lat="38.730870" lon="-5.589050">
        <ele>397.2</ele>
        <time>2010-06-11T09:12:24Z</time>
      </trkpt>
      <trkpt lat="38.730900" lon="-5.589390">
        <ele>392.4</ele>
        <time>2010-06-11T09:13:54Z</time>
      </trkpt>
      <trkpt lat="38.732280" lon="-5.592530">
        <ele>396.2</ele>
        <time>2010-06-11T09:15:24Z</time>
      </trkpt>
      <trkpt lat="38.732540" lon="-5.593460">
        <ele>395.7</ele>
        <time>2010-06-11T09:16:54Z</time>
      </trkpt>
      <trkpt lat="38.732780" lon="-5.595190">
        <ele>391.4</ele>
        <time>2010-06-11T09:18:24Z</time>
      </trkpt>
      <trkpt lat="38.733160" lon="-5.596820">
        <ele>387.1</ele>
        <time>2010-06-11T09:19:54Z</time>
      </trkpt>
      <trkpt lat="38.733430" lon="-5.598370">
        <ele>382.7</ele>
        <time>2010-06-11T09:21:24Z</time>
      </trkpt>
      <trkpt lat="38.734290" lon="-5.599790">
        <ele>383.2</ele>
        <time>2010-06-11T09:22:54Z</time>
      </trkpt>
      <trkpt lat="38.735540" lon="-5.602170">
        <ele>376.0</ele>
        <time>2010-06-11T09:24:24Z</time>
      </trkpt>
      <trkpt lat="38.735700" lon="-5.602430">
        <ele>376.5</ele>
        <time>2010-06-11T09:25:54Z</time>
      </trkpt>
      <trkpt lat="38.735890" lon="-5.602480">
        <ele>375.1</ele>
        <time>2010-06-11T09:27:24Z</time>
      </trkpt>
      <trkpt lat="38.739270" lon="-5.602410">
        <ele>371.7</ele>
        <time>2010-06-11T09:28:54Z</time>
      </trkpt>
      <trkpt lat="38.739850" lon="-5.602200">
        <ele>376.5</ele>
        <time>2010-06-11T09:30:24Z</time>
      </trkpt>
      <trkpt lat="38.739670" lon="-5.603620">
        <ele>369.8</ele>
        <time>2010-06-11T09:31:54Z</time>
      </trkpt>
      <trkpt lat="38.739570" lon="-5.605000">
        <ele>367.4</ele>
        <time>2010-06-11T09:33:24Z</time>
      </trkpt>
      <trkpt lat="38.739190" lon="-5.607050">
        <ele>369.3</ele>
        <time>2010-06-11T09:34:54Z</time>
      </trkpt>
      <trkpt lat="38.738840" lon="-5.610180">
        <ele>366.9</ele>
        <time>2010-06-11T09:36:24Z</time>
      </trkpt>
      <trkpt lat="38.739050" lon="-5.610290">
        <ele>364.5</ele>
        <time>2010-06-11T09:37:54Z</time>
      </trkpt>
      <trkpt lat="38.739330" lon="-5.608810">
        <ele>379.9</ele>
        <time>2010-06-11T09:39:24Z</time>
      </trkpt>
      <trkpt lat="38.739600" lon="-5.608000">
        <ele>385.1</ele>
        <time>2010-06-11T09:40:54Z</time>
      </trkpt>
      <trkpt lat="38.740190" lon="-5.606850">
        <ele>384.7</ele>
        <time>2010-06-11T09:42:24Z</time>
      </trkpt>
      <trkpt lat="38.741860" lon="-5.605010">
        <ele>384.2</ele>
        <time>2010-06-11T09:43:54Z</time>
      </trkpt>
      <trkpt lat="38.742540" lon="-5.604250">
        <ele>380.3</ele>
        <time>2010-06-11T09:45:24Z</time>
      </trkpt>
      <trkpt lat="38.743550" lon="-5.603270">
        <ele>381.3</ele>
        <time>2010-06-11T09:46:54Z</time>
      </trkpt>
      <trkpt lat="38.744930" lon="-5.602490">
        <ele>377.9</ele>
        <time>2010-06-11T09:48:24Z</time>
      </trkpt>
      <trkpt lat="38.746300" lon="-5.601850">
        <ele>377.0</ele>
        <time>2010-06-11T09:49:54Z</time>
      </trkpt>
      <trkpt lat="38.747950" lon="-5.600830">
        <ele>372.2</ele>
        <time>2010-06-11T09:51:24Z</time>
      </trkpt>
      <trkpt lat="38.749240" lon="-5.599030">
        <ele>375.1</ele>
        <time>2010-06-11T09:52:54Z</time>
      </trkpt>
      <trkpt lat="38.750370" lon="-5.597410">
        <ele>371.7</ele>
        <time>2010-06-11T09:54:24Z</time>
      </trkpt>
      <trkpt lat="38.750630" lon="-5.597320">
        <ele>368.8</ele>
        <time>2010-06-11T09:55:54Z</time>
      </trkpt>
      <trkpt lat="38.750880" lon="-5.597110">
        <ele>371.2</ele>
        <time>2010-06-11T09:57:24Z</time>
      </trkpt>
      <trkpt lat="38.750950" lon="-5.596760">
        <ele>373.1</ele>
        <time>2010-06-11T09:58:54Z</time>
      </trkpt>
      <trkpt lat="38.751180" lon="-5.596300">
        <ele>370.2</ele>
        <time>2010-06-11T10:00:24Z</time>
      </trkpt>
      <trkpt lat="38.751250" lon="-5.595890">
        <ele>369.8</ele>
        <time>2010-06-11T10:01:54Z</time>
      </trkpt>
      <trkpt lat="38.751210" lon="-5.595750">
        <ele>372.6</ele>
        <time>2010-06-11T10:03:24Z</time>
      </trkpt>
      <trkpt lat="38.751380" lon="-5.595250">
        <ele>371.7</ele>
        <time>2010-06-11T10:04:54Z</time>
      </trkpt>
      <trkpt lat="38.751430" lon="-5.594930">
        <ele>370.2</ele>
        <time>2010-06-11T10:06:24Z</time>
      </trkpt>
      <trkpt lat="38.751470" lon="-5.594040">
        <ele>377.5</ele>
        <time>2010-06-11T10:07:54Z</time>
      </trkpt>
      <trkpt lat="38.751290" lon="-5.593190">
        <ele>367.4</ele>
        <time>2010-06-11T10:09:24Z</time>
      </trkpt>
      <trkpt lat="38.751390" lon="-5.593390">
        <ele>368.8</ele>
        <time>2010-06-11T10:10:54Z</time>
      </trkpt>
      <trkpt lat="38.751420" lon="-5.593760">
        <ele>371.2</ele>
        <time>2010-06-11T10:12:24Z</time>
      </trkpt>
      <trkpt lat="38.751490" lon="-5.594250">
        <ele>373.6</ele>
        <time>2010-06-11T10:13:54Z</time>
      </trkpt>
      <trkpt lat="38.751470" lon="-5.594730">
        <ele>370.2</ele>
        <time>2010-06-11T10:15:24Z</time>
      </trkpt>
      <trkpt lat="38.751350" lon="-5.595390">
        <ele>371.7</ele>
        <time>2010-06-11T10:16:54Z</time>
      </trkpt>
      <trkpt lat="38.751220" lon="-5.595720">
        <ele>365.0</ele>
        <time>2010-06-11T10:18:24Z</time>
      </trkpt>
      <trkpt lat="38.751230" lon="-5.596080">
        <ele>365.9</ele>
        <time>2010-06-11T10:19:54Z</time>
      </trkpt>
      <trkpt lat="38.751150" lon="-5.596250">
        <ele>368.3</ele>
        <time>2010-06-11T10:21:24Z</time>
      </trkpt>
      <trkpt lat="38.751150" lon="-5.596460">
        <ele>373.1</ele>
        <time>2010-06-11T10:22:54Z</time>
      </trkpt>
      <trkpt lat="38.750890" lon="-5.596920">
        <ele>372.2</ele>
        <time>2010-06-11T10:24:24Z</time>
      </trkpt>
      <trkpt lat="38.750860" lon="-5.597180">
        <ele>373.6</ele>
        <time>2010-06-11T10:25:54Z</time>
      </trkpt>
      <trkpt lat="38.750720" lon="-5.597340">
        <ele>375.5</ele>
        <time>2010-06-11T10:27:24Z</time>
      </trkpt>
      <trkpt lat="38.750460" lon="-5.597440">
        <ele>371.7</ele>
        <time>2010-06-11T10:28:54Z</time>
      </trkpt>
      <trkpt lat="38.750140" lon="-5.597680">
        <ele>368.8</ele>
        <time>2010-06-11T10:30:24Z</time>
      </trkpt>
      <trkpt lat="38.749960" lon="-5.597910">
        <ele>370.7</ele>
        <time>2010-06-11T10:31:54Z</time>
      </trkpt>
      <trkpt lat="38.749690" lon="-5.598620">
        <ele>369.3</ele>
        <time>2010-06-11T10:33:24Z</time>
      </trkpt>
      <trkpt lat="38.749130" lon="-5.599190">
        <ele>367.4</ele>
        <time>2010-06-11T10:34:54Z</time>
      </trkpt>
      <trkpt lat="38.748340" lon="-5.600310">
        <ele>380.3</ele>
        <time>2010-06-11T10:36:24Z</time>
      </trkpt>
      <trkpt lat="38.749040" lon="-5.600080">
        <ele>377.0</ele>
        <time>2010-06-11T10:37:54Z</time>
      </trkpt>
      <trkpt lat="38.749600" lon="-5.600050">
        <ele>377.9</ele>
        <time>2010-06-11T10:39:24Z</time>
      </trkpt>
      <trkpt lat="38.750210" lon="-5.600240">
        <ele>376.5</ele>
        <time>2010-06-11T10:40:54Z</time>
      </trkpt>
      <trkpt lat="38.750940" lon="-5.600210">
        <ele>381.3</ele>
        <time>2010-06-11T10:42:24Z</time>
      </trkpt>
      <trkpt lat="38.751280" lon="-5.600100">
        <ele>382.7</ele>
        <time>2010-06-11T10:43:54Z</time>
      </trkpt>
      <trkpt lat="38.751690" lon="-5.600240">
        <ele>381.8</ele>
        <time>2010-06-11T10:45:24Z</time>
      </trkpt>
      <trkpt lat="38.752050" lon="-5.600570">
        <ele>382.2</ele>
        <time>2010-06-11T10:46:54Z</time>
      </trkpt>
      <trkpt lat="38.752760" lon="-5.600760">
        <ele>390.4</ele>
        <time>2010-06-11T10:48:24Z</time>
      </trkpt>
      <trkpt lat="38.753350" lon="-5.601290">
        <ele>389.0</ele>
        <time>2010-06-11T10:49:54Z</time>
      </trkpt>
      <trkpt lat="38.754060" lon="-5.601670">
        <ele>395.7</ele>
        <time>2010-06-11T10:51:24Z</time>
      </trkpt>
      <trkpt lat="38.755860" lon="-5.601740">
        <ele>399.6</ele>
        <time>2010-06-11T10:52:54Z</time>
      </trkpt>
      <trkpt lat="38.756750" lon="-5.601630">
        <ele>397.6</ele>
        <time>2010-06-11T10:54:24Z</time>
      </trkpt>
      <trkpt lat="38.757550" lon="-5.601320">
        <ele>395.2</ele>
        <time>2010-06-11T10:55:54Z</time>
      </trkpt>
      <trkpt lat="38.758390" lon="-5.601150">
        <ele>391.9</ele>
        <time>2010-06-11T10:57:24Z</time>
      </trkpt>
      <trkpt lat="38.759270" lon="-5.600700">
        <ele>384.2</ele>
        <time>2010-06-11T10:58:54Z</time>
      </trkpt>
      <trkpt lat="38.760530" lon="-5.600100">
        <ele>384.2</ele>
        <time>2010-06-11T11:00:24Z</time>
      </trkpt>
      <trkpt lat="38.761540" lon="-5.599910">
        <ele>384.2</ele>
        <time>2010-06-11T11:01:54Z</time>
      </trkpt>
      <trkpt lat="38.762510" lon="-5.600110">
        <ele>381.8</ele>
        <time>2010-06-11T11:03:24Z</time>
      </trkpt>
      <trkpt lat="38.763250" lon="-5.600460">
        <ele>383.2</ele>
        <time>2010-06-11T11:04:54Z</time>
      </trkpt>
      <trkpt lat="38.765010" lon="-5.599950">
        <ele>375.5</ele>
        <time>2010-06-11T11:06:24Z</time>
      </trkpt>
      <trkpt lat="38.765370" lon="-5.599990">
        <ele>373.1</ele>
        <time>2010-06-11T11:07:54Z</time>
      </trkpt>
      <trkpt lat="38.766050" lon="-5.599870">
        <ele>371.7</ele>
        <time>2010-06-11T11:09:24Z</time>
      </trkpt>
      <trkpt lat="38.766510" lon="-5.600070">
        <ele>375.1</ele>
        <time>2010-06-11T11:10:54Z</time>
      </trkpt>
      <trkpt lat="38.766820" lon="-5.600080">
        <ele>373.6</ele>
        <time>2010-06-11T11:12:24Z</time>
      </trkpt>
      <trkpt lat="38.767840" lon="-5.599720">
        <ele>372.6</ele>
        <time>2010-06-11T11:13:54Z</time>
      </trkpt>
      <trkpt lat="38.768050" lon="-5.599720">
        <ele>372.2</ele>
        <time>2010-06-11T11:15:24Z</time>
      </trkpt>
      <trkpt lat="38.768310" lon="-5.599830">
        <ele>373.1</ele>
        <time>2010-06-11T11:16:54Z</time>
      </trkpt>
      <trkpt lat="38.768750" lon="-5.600160">
        <ele>375.1</ele>
        <time>2010-06-11T11:18:24Z</time>
      </trkpt>
      <trkpt lat="38.769240" lon="-5.600380">
        <ele>377.5</ele>
        <time>2010-06-11T11:19:54Z</time>
      </trkpt>
      <trkpt lat="38.769400" lon="-5.600380">
        <ele>377.5</ele>
        <time>2010-06-11T11:21:24Z</time>
      </trkpt>
      <trkpt lat="38.769340" lon="-5.600050">
        <ele>376.5</ele>
        <time>2010-06-11T11:22:54Z</time>
      </trkpt>
      <trkpt lat="38.768940" lon="-5.598610">
        <ele>373.1</ele>
        <time>2010-06-11T11:24:24Z</time>
      </trkpt>
      <trkpt lat="38.768510" lon="-5.597560">
        <ele>372.2</ele>
        <time>2010-06-11T11:25:54Z</time>
      </trkpt>
      <trkpt lat="38.767670" lon="-5.596090">
        <ele>364.5</ele>
        <time>2010-06-11T11:27:24Z</time>
      </trkpt>
      <trkpt lat="38.767380" lon="-5.595230">
        <ele>362.6</ele>
        <time>2010-06-11T11:28:54Z</time>
      </trkpt>
      <trkpt lat="38.766620" lon="-5.593450">
        <ele>360.6</ele>
        <time>2010-06-11T11:30:24Z</time>
      </trkpt>
      <trkpt lat="38.766380" lon="-5.593150">
        <ele>359.2</ele>
        <time>2010-06-11T11:31:54Z</time>
      </trkpt>
      <trkpt lat="38.765680" lon="-5.591820">
        <ele>357.7</ele>
        <time>2010-06-11T11:33:24Z</time>
      </trkpt>
      <trkpt lat="38.765320" lon="-5.591360">
        <ele>356.3</ele>
        <time>2010-06-11T11:34:54Z</time>
      </trkpt>
      <trkpt lat="38.765090" lon="-5.590830">
        <ele>375.1</ele>
        <time>2010-06-11T11:36:24Z</time>
      </trkpt>
      <trkpt lat="38.765130" lon="-5.590410">
        <ele>374.6</ele>
        <time>2010-06-11T11:37:54Z</time>
      </trkpt>
      <trkpt lat="38.764830" lon="-5.590100">
        <ele>372.2</ele>
        <time>2010-06-11T11:39:24Z</time>
      </trkpt>
      <trkpt lat="38.764220" lon="-5.588950">
        <ele>377.5</ele>
        <time>2010-06-11T11:40:54Z</time>
      </trkpt>
      <trkpt lat="38.763290" lon="-5.587890">
        <ele>381.8</ele>
        <time>2010-06-11T11:42:24Z</time>
      </trkpt>
      <trkpt lat="38.762280" lon="-5.586380">
        <ele>386.6</ele>
        <time>2010-06-11T11:43:54Z</time>
      </trkpt>
      <trkpt lat="38.761090" lon="-5.584170">
        <ele>395.2</ele>
        <time>2010-06-11T11:45:24Z</time>
      </trkpt>
      <trkpt lat="38.760090" lon="-5.582760">
        <ele>404.9</ele>
        <time>2010-06-11T11:46:54Z</time>
      </trkpt>
      <trkpt lat="38.757470" lon="-5.579280">
        <ele>396.2</ele>
        <time>2010-06-11T11:48:24Z</time>
      </trkpt>
      <trkpt lat="38.754910" lon="-5.576820">
        <ele>398.1</ele>
        <time>2010-06-11T11:49:54Z</time>
      </trkpt>
      <trkpt lat="38.754070" lon="-5.576410">
        <ele>407.2</ele>
        <time>2010-06-11T11:51:24Z</time>
      </trkpt>
      <trkpt lat="38.753360" lon="-5.576040">
        <ele>420.7</ele>
        <time>2010-06-11T11:52:54Z</time>
      </trkpt>
      <trkpt lat="38.752180" lon="-5.575800">
        <ele>424.6</ele>
        <time>2010-06-11T11:54:24Z</time>
      </trkpt>
      <trkpt lat="38.751690" lon="-5.575830">
        <ele>427.5</ele>
        <time>2010-06-11T11:55:54Z</time>
      </trkpt>
      <trkpt lat="38.751170" lon="-5.575630">
        <ele>431.3</ele>
        <time>2010-06-11T11:57:24Z</time>
      </trkpt>
      <trkpt lat="38.750080" lon="-5.574680">
        <ele>430.3</ele>
        <time>2010-06-11T11:58:54Z</time>
      </trkpt>
      <trkpt lat="38.749560" lon="-5.574030">
        <ele>428.4</ele>
        <time>2010-06-11T12:00:24Z</time>
      </trkpt>
      <trkpt lat="38.748190" lon="-5.572620">
        <ele>431.3</ele>
        <time>2010-06-11T12:01:54Z</time>
      </trkpt>
      <trkpt lat="38.746710" lon="-5.571780">
        <ele>433.7</ele>
        <time>2010-06-11T12:03:24Z</time>
      </trkpt>
      <trkpt lat="38.745060" lon="-5.569640">
        <ele>449.1</ele>
        <time>2010-06-11T12:04:54Z</time>
      </trkpt>
      <trkpt lat="38.743710" lon="-5.568370">
        <ele>448.1</ele>
        <time>2010-06-11T12:06:24Z</time>
      </trkpt>
      <trkpt lat="38.743100" lon="-5.568070">
        <ele>448.1</ele>
        <time>2010-06-11T12:07:54Z</time>
      </trkpt>
      <trkpt lat="38.742210" lon="-5.567170">
        <ele>450.0</ele>
        <time>2010-06-11T12:09:24Z</time>
      </trkpt>
      <trkpt lat="38.741050" lon="-5.564910">
        <ele>456.3</ele>
        <time>2010-06-11T12:10:54Z</time>
      </trkpt>
      <trkpt lat="38.740520" lon="-5.563710">
        <ele>452.4</ele>
        <time>2010-06-11T12:12:24Z</time>
      </trkpt>
      <trkpt lat="38.739780" lon="-5.562420">
        <ele>453.9</ele>
        <time>2010-06-11T12:13:54Z</time>
      </trkpt>
      <trkpt lat="38.739000" lon="-5.561200">
        <ele>458.2</ele>
        <time>2010-06-11T12:15:24Z</time>
      </trkpt>
      <trkpt lat="38.737820" lon="-5.559570">
        <ele>465.4</ele>
        <time>2010-06-11T12:16:54Z</time>
      </trkpt>
      <trkpt lat="38.737390" lon="-5.558370">
        <ele>462.5</ele>
        <time>2010-06-11T12:18:24Z</time>
      </trkpt>
      <trkpt lat="38.737020" lon="-5.557830">
        <ele>462.0</ele>
        <time>2010-06-11T12:19:54Z</time>
      </trkpt>
      <trkpt lat="38.736490" lon="-5.556580">
        <ele>457.7</ele>
        <time>2010-06-11T12:21:24Z</time>
      </trkpt>
      <trkpt lat="38.734900" lon="-5.554570">
        <ele>468.8</ele>
        <time>2010-06-11T12:22:54Z</time>
      </trkpt>
      <trkpt lat="38.734560" lon="-5.553960">
        <ele>474.1</ele>
        <time>2010-06-11T12:24:24Z</time>
      </trkpt>
      <trkpt lat="38.733860" lon="-5.553350">
        <ele>476.0</ele>
        <time>2010-06-11T12:25:54Z</time>
      </trkpt>
      <trkpt lat="38.733330" lon="-5.553010">
        <ele>477.0</ele>
        <time>2010-06-11T12:27:24Z</time>
      </trkpt>
      <trkpt lat="38.733130" lon="-5.552740">
        <ele>478.4</ele>
        <time>2010-06-11T12:28:54Z</time>
      </trkpt>
      <trkpt lat="38.733110" lon="-5.552580">
        <ele>478.9</ele>
        <time>2010-06-11T12:30:24Z</time>
      </trkpt>
      <trkpt lat="38.733700" lon="-5.550310">
        <ele>482.2</ele>
        <time>2010-06-11T12:31:54Z</time>
      </trkpt>
      <trkpt lat="38.731280" lon="-5.549460">
        <ele>489.9</ele>
        <time>2010-06-11T12:33:24Z</time>
      </trkpt>
      <trkpt lat="38.730870" lon="-5.549400">
        <ele>488.0</ele>
        <time>2010-06-11T12:34:54Z</time>
      </trkpt>
      <trkpt lat="38.730075" lon="-5.548689">
        <ele>488.0</ele>
        <time>2011-01-03T12:48:55Z</time>
      </trkpt>
      <trkpt lat="38.728766" lon="-5.547553">
        <ele>488.0</ele>
        <time>2011-01-03T12:49:05Z</time>
      </trkpt>
      <trkpt lat="38.726763" lon="-5.545859">
        <ele>488.0</ele>
        <time>2011-01-03T12:49:06Z</time>
      </trkpt>
      <trkpt lat="38.725724" lon="-5.544781">
        <ele>488.0</ele>
        <time>2011-01-03T12:49:07Z</time>
      </trkpt>
      <trkpt lat="38.724915" lon="-5.544049">
        <ele>488.0</ele>
        <time>2011-01-03T12:49:08Z</time>
      </trkpt>
      <trkpt lat="38.723953" lon="-5.546013">
        <ele>488.0</ele>
        <time>2011-01-03T12:49:10Z</time>
      </trkpt>
      <trkpt lat="38.723491" lon="-5.547284">
        <ele>488.0</ele>
        <time>2011-01-03T12:49:11Z</time>
      </trkpt>
      <trkpt lat="38.723298" lon="-5.548978">
        <ele>488.0</ele>
        <time>2011-01-03T12:49:11Z</time>
      </trkpt>
      <trkpt lat="38.721527" lon="-5.549286">
        <ele>488.0</ele>
        <time>2011-01-03T12:49:12Z</time>
      </trkpt>
      <trkpt lat="38.721797" lon="-5.550518">
        <ele>488.0</ele>
        <time>2011-01-03T12:49:13Z</time>
      </trkpt>
      <trkpt lat="38.721989" lon="-5.551442">
        <ele>488.0</ele>
        <time>2011-01-03T12:49:14Z</time>
      </trkpt>
      <trkpt lat="38.722066" lon="-5.551981">
        <ele>488.0</ele>
        <time>2011-01-03T12:49:15Z</time>
      </trkpt>
      <trkpt lat="38.722028" lon="-5.552713">
        <ele>488.0</ele>
        <time>2011-01-03T12:49:16Z</time>
      </trkpt>
      <trkpt lat="38.722105" lon="-5.553252">
        <ele>488.0</ele>
        <time>2011-01-03T12:49:18Z</time>
      </trkpt>
    </trkseg>
  </trk></gpx>